Time;durP1;ratioP1;P1;durP2;ratioP2;P2;SDS_P1;SDS_P2;PMS_P1;PMS_P2;Temp;Humidity;BMP_temperature;BMP_pressure;BME280_temperature;BME280_humidity;BME280_pressure;Samples;Min_cycle;Max_cycle;Signal;HPM_P1;HPM_P2
2022/06/07 00:01:34;;;;;;;23.83;17.50;;;;;;;17.00;66.29;97115.74;1646522;85;27567;-73
2022/06/07 00:04:02;;;;;;;19.73;16.65;;;;;;;16.89;66.39;97108.55;1653742;86;25795;-76
2022/06/07 00:06:29;;;;;;;21.37;15.68;;;;;;;16.84;66.49;97110.67;1657839;86;25888;-73
2022/06/07 00:08:56;;;;;;;23.47;17.32;;;;;;;16.67;66.51;97107.23;1642531;86;25995;-75
2022/06/07 00:11:23;;;;;;;25.52;18.00;;;;;;;16.62;66.76;97115.37;1641681;86;25783;-73
2022/06/07 00:13:50;;;;;;;22.32;17.32;;;;;;;16.61;66.95;97105.52;1644187;86;27648;-73
2022/06/07 00:16:17;;;;;;;22.65;17.25;;;;;;;16.58;67.03;97113.66;1647403;86;25756;-74
2022/06/07 00:18:44;;;;;;;23.85;17.80;;;;;;;16.47;67.06;97112.44;1644093;86;25975;-74
2022/06/07 00:21:11;;;;;;;27.27;18.85;;;;;;;16.39;67.32;97115.09;1649313;86;25791;-73
2022/06/07 00:23:38;;;;;;;30.75;22.75;;;;;;;16.39;67.45;97112.91;1637964;86;25772;-73
2022/06/07 00:26:05;;;;;;;31.97;23.80;;;;;;;16.40;67.62;97114.55;1657157;86;27289;-74
2022/06/07 00:28:32;;;;;;;30.10;21.33;;;;;;;16.40;67.65;97115.91;1651276;86;25970;-75
2022/06/07 00:31:00;;;;;;;29.80;23.45;;;;;;;16.39;67.64;97118.35;1655349;86;25802;-73
2022/06/07 00:33:27;;;;;;;36.45;26.95;;;;;;;16.37;67.67;97117.78;1651985;86;26496;-73
2022/06/07 00:35:54;;;;;;;35.65;24.92;;;;;;;16.38;67.76;97112.62;1647643;86;26006;-76
2022/06/07 00:38:21;;;;;;;37.63;26.17;;;;;;;16.37;67.81;97113.69;1643500;86;28231;-73
2022/06/07 00:40:47;;;;;;;33.98;24.23;;;;;;;16.37;67.80;97108.25;1649033;86;25323;-73
2022/06/07 00:43:14;;;;;;;32.65;23.65;;;;;;;16.33;67.80;97112.55;1646849;86;25951;-75
2022/06/07 00:45:40;;;;;;;32.90;22.82;;;;;;;16.30;67.81;97110.36;1641951;86;26514;-73
2022/06/07 00:48:09;;;;;;;33.05;22.70;;;;;;;16.24;67.88;97111.36;1686652;82;25750;-73
2022/06/07 00:50:55;;;;;;;30.15;21.65;;;;;;;16.19;67.89;97110.75;1719234;82;27443;-73
2022/06/07 00:53:32;;;;;;;29.48;19.30;;;;;;;16.11;67.86;97110.66;1729007;82;25480;-73
2022/06/07 00:55:59;;;;;;;28.20;18.77;;;;;;;16.06;68.07;97105.14;1718784;82;25763;-76
2022/06/07 00:58:28;;;;;;;21.62;14.63;;;;;;;16.05;68.08;97109.51;1707313;83;26400;-73
2022/06/07 01:00:57;;;;;;;19.37;13.60;;;;;;;16.02;68.09;97112.19;1690777;83;25704;-73
2022/06/07 01:03:24;;;;;;;14.95;12.88;;;;;;;15.99;68.10;97114.05;1701082;83;27432;-72
2022/06/07 01:05:53;;;;;;;14.20;12.10;;;;;;;15.97;68.10;97116.73;1731549;82;25668;-74
2022/06/07 01:11:06;;;;;;;17.98;13.43;;;;;;;15.84;68.22;97108.40;1679111;83;25747;-72
2022/06/07 01:13:35;;;;;;;19.62;13.72;;;;;;;15.71;68.40;97111.48;1702028;83;25734;-74
2022/06/07 01:16:06;;;;;;;22.50;14.90;;;;;;;15.70;68.64;97104.39;1711652;82;27250;-76
2022/06/07 01:18:34;;;;;;;18.67;14.30;;;;;;;15.71;68.62;97104.68;1688012;83;25744;-73
2022/06/07 01:21:20;;;;;;;22.90;15.25;;;;;;;15.70;68.66;97112.02;1677353;83;25216;-72
2022/06/07 01:23:48;;;;;;;22.60;15.13;;;;;;;15.66;68.65;97108.17;1683341;83;25761;-72
2022/06/07 01:26:15;;;;;;;24.82;15.93;;;;;;;15.58;68.78;97102.34;1677322;83;26517;-74
2022/06/07 01:28:42;;;;;;;22.15;15.25;;;;;;;15.44;68.83;97101.84;1677296;83;27401;-73
2022/06/07 01:31:08;;;;;;;21.42;15.93;;;;;;;15.35;69.07;97098.69;1700373;83;25843;-72
2022/06/07 01:33:35;;;;;;;23.95;17.07;;;;;;;15.34;69.12;97101.12;1721959;82;25688;-73
2022/06/07 01:36:09;;;;;;;27.15;17.57;;;;;;;15.33;69.19;97100.86;1686104;83;25872;-71
2022/06/07 01:38:38;;;;;;;24.20;18.92;;;;;;;15.31;69.15;97097.56;1687876;82;25765;-74
2022/06/07 01:43:51;;;;;;;23.57;18.45;;;;;;;15.19;69.30;97094.65;1716882;82;25851;-72
2022/06/07 01:46:18;;;;;;;24.98;18.40;;;;;;;15.20;69.36;97093.58;1737811;82;25685;-72
2022/06/07 01:48:48;;;;;;;24.15;18.62;;;;;;;15.16;69.37;97090.52;1761832;81;25889;-71
2022/06/07 01:51:16;;;;;;;25.95;18.20;;;;;;;15.14;69.41;97093.48;1752680;81;25878;-71
2022/06/07 01:53:44;;;;;;;20.00;15.65;;;;;;;15.12;69.41;97086.64;1760770;81;27569;-72
2022/06/07 01:56:15;;;;;;;21.55;15.60;;;;;;;15.09;69.35;97085.80;1730848;82;25934;-72
2022/06/07 01:58:43;;;;;;;22.13;14.95;;;;;;;15.06;69.36;97084.39;1667355;85;25825;-72
2022/06/07 02:01:12;;;;;;;21.25;14.98;;;;;;;15.04;69.40;97078.91;1716934;81;25817;-72
2022/06/07 02:03:40;;;;;;;18.40;14.87;;;;;;;15.03;69.42;97086.77;1703813;83;25524;-71
2022/06/07 02:06:10;;;;;;;20.60;15.00;;;;;;;15.00;69.45;97083.19;1716389;82;27384;-71
2022/06/07 02:08:37;;;;;;;19.12;15.25;;;;;;;14.98;69.49;97080.71;1713591;82;25519;-74
2022/06/07 02:11:09;;;;;;;21.27;15.50;;;;;;;14.96;69.51;97084.77;1714960;81;25905;-72
2022/06/07 02:13:36;;;;;;;19.25;14.60;;;;;;;14.89;69.51;97078.12;1716623;82;26719;-71
2022/06/07 02:16:04;;;;;;;18.57;14.65;;;;;;;14.85;69.61;97081.59;1716327;82;26222;-73
2022/06/07 02:18:32;;;;;;;15.72;13.90;;;;;;;14.84;69.57;97082.66;1714341;82;27377;-71
2022/06/07 02:21:00;;;;;;;19.82;14.73;;;;;;;14.80;69.56;97081.50;1716488;81;25753;-71
2022/06/07 02:23:28;;;;;;;21.02;16.02;;;;;;;14.72;69.64;97078.12;1702545;83;25732;-71
2022/06/07 02:25:59;;;;;;;20.35;15.70;;;;;;;14.70;69.68;97080.80;1704234;83;25794;-72
2022/06/07 02:28:31;;;;;;;20.07;16.07;;;;;;;14.65;69.69;97082.87;1618785;88;25803;-72
2022/06/07 02:30:59;;;;;;;22.60;15.98;;;;;;;14.59;69.82;97077.08;1618305;87;27426;-71
2022/06/07 02:33:28;;;;;;;24.55;17.85;;;;;;;14.54;69.90;97073.44;1596494;88;25560;-75
2022/06/07 02:35:55;;;;;;;22.07;17.92;;;;;;;14.47;70.05;97076.84;1601672;88;25321;-72
2022/06/07 02:38:22;;;;;;;27.62;18.82;;;;;;;14.47;70.27;97072.24;1566041;90;25982;-72
2022/06/07 02:40:51;;;;;;;22.10;16.57;;;;;;;14.48;70.31;97072.53;1571448;89;26171;-72
2022/06/07 02:43:19;;;;;;;22.77;18.02;;;;;;;14.41;70.37;97071.84;1566266;90;27419;-71
2022/06/07 02:45:46;;;;;;;25.82;18.98;;;;;;;14.35;70.53;97068.73;1568729;90;25905;-73
2022/06/07 02:48:13;;;;;;;27.77;19.35;;;;;;;14.39;70.62;97068.52;1566322;89;25854;-74
2022/06/07 02:50:39;;;;;;;22.10;17.90;;;;;;;14.40;70.55;97072.91;1566371;90;25798;-71
2022/06/07 02:53:06;;;;;;;23.07;17.65;;;;;;;14.40;70.59;97064.77;1568858;90;25791;-74
2022/06/07 02:55:33;;;;;;;18.95;15.72;;;;;;;14.41;70.57;97069.95;1604425;86;28358;-71
2022/06/07 02:58:00;;;;;;;20.50;16.17;;;;;;;14.43;70.54;97071.07;1650057;86;26082;-71
2022/06/07 03:00:27;;;;;;;24.47;17.10;;;;;;;14.40;70.55;97075.09;1646557;86;25756;-72
2022/06/07 03:02:54;;;;;;;25.62;17.27;;;;;;;14.34;70.62;97075.22;1648853;86;25911;-72
2022/06/07 03:05:20;;;;;;;21.27;16.42;;;;;;;14.31;70.81;97076.52;1681039;84;25902;-71
2022/06/07 03:07:48;;;;;;;25.75;17.77;;;;;;;14.31;70.84;97077.06;1681106;84;28362;-72
2022/06/07 03:10:15;;;;;;;25.25;18.62;;;;;;;14.30;70.88;97075.41;1676714;84;25731;-71
2022/06/07 03:12:41;;;;;;;22.77;16.85;;;;;;;14.31;70.84;97081.95;1680873;84;25969;-71
2022/06/07 03:15:09;;;;;;;21.52;15.50;;;;;;;14.29;70.83;97089.52;1683584;84;25830;-73
2022/06/07 03:17:37;;;;;;;24.05;15.93;;;;;;;14.28;70.84;97084.32;1684828;85;25506;-73
2022/06/07 03:20:09;;;;;;;19.60;14.90;;;;;;;14.25;70.88;97079.41;1680633;84;27441;-71
2022/06/07 03:22:37;;;;;;;22.17;15.10;;;;;;;14.23;70.92;97084.24;1683276;84;25775;-72
2022/06/07 03:25:07;;;;;;;22.05;16.48;;;;;;;14.22;70.99;97088.02;1703807;82;25822;-71
2022/06/07 03:27:35;;;;;;;19.60;15.78;;;;;;;14.21;71.04;97093.16;1738446;82;25727;-73
2022/06/07 03:30:06;;;;;;;20.85;16.52;;;;;;;14.20;71.07;97088.27;1708189;82;26072;-71
2022/06/07 03:32:34;;;;;;;22.75;16.93;;;;;;;14.19;71.11;97089.86;1682716;84;27386;-72
2022/06/07 03:35:02;;;;;;;22.77;17.05;;;;;;;14.18;71.17;97082.77;1741191;81;25928;-72
2022/06/07 03:37:28;;;;;;;21.33;16.55;;;;;;;14.21;71.20;97082.30;1721502;82;27060;-72
2022/06/07 03:39:55;;;;;;;23.27;16.75;;;;;;;14.23;71.28;97082.36;1721471;82;25805;-72
2022/06/07 03:42:22;;;;;;;21.95;17.05;;;;;;;14.25;71.32;97084.83;1716056;82;25826;-71
2022/06/07 03:44:50;;;;;;;21.02;16.27;;;;;;;14.26;71.39;97085.09;1731491;81;28066;-71
2022/06/07 03:47:18;;;;;;;23.02;16.48;;;;;;;14.30;71.44;97084.38;1747624;81;25802;-74
2022/06/07 03:49:46;;;;;;;18.90;15.10;;;;;;;14.31;71.48;97086.56;1741915;81;26313;-74
2022/06/07 03:52:14;;;;;;;21.48;14.90;;;;;;;14.33;71.58;97082.55;1726040;81;26230;-74
2022/06/07 03:54:41;;;;;;;21.95;16.48;;;;;;;14.36;71.62;97079.35;1732532;81;25291;-71
2022/06/07 03:57:09;;;;;;;20.05;14.40;;;;;;;14.39;71.71;97074.80;1727204;81;27791;-74
2022/06/07 03:59:37;;;;;;;21.23;13.15;;;;;;;14.43;71.79;97075.14;1701595;83;25758;-75
2022/06/07 04:02:06;;;;;;;18.30;13.45;;;;;;;14.48;71.85;97066.28;1746205;81;25803;-71
2022/06/07 04:04:35;;;;;;;19.12;13.93;;;;;;;14.50;71.88;97069.02;1723476;81;25858;-74
2022/06/07 04:09:47;;;;;;;20.65;14.78;;;;;;;14.59;72.05;97057.24;1739653;81;28263;-74
2022/06/07 04:12:16;;;;;;;20.57;16.48;;;;;;;14.63;72.14;97057.84;1735447;81;25801;-73
2022/06/07 04:14:45;;;;;;;19.00;15.53;;;;;;;14.68;72.28;97060.66;1729442;81;27111;-72
2022/06/07 04:17:13;;;;;;;16.95;13.88;;;;;;;14.72;72.26;97056.39;1742779;81;25725;-75
2022/06/07 04:19:42;;;;;;;14.30;12.80;;;;;;;14.77;72.27;97053.74;1725133;81;25726;-74
2022/06/07 04:22:09;;;;;;;17.48;12.45;;;;;;;14.82;72.28;97038.61;1747351;81;27499;-74
2022/06/07 04:24:35;;;;;;;16.17;12.53;;;;;;;14.86;72.38;97035.13;1733549;81;25781;-71
2022/06/07 04:27:02;;;;;;;19.57;13.15;;;;;;;14.94;72.38;97042.06;1739800;81;25800;-71
2022/06/07 04:29:29;;;;;;;22.95;17.20;;;;;;;14.99;72.47;97038.05;1746658;81;26251;-74
2022/06/07 04:31:56;;;;;;;21.17;15.05;;;;;;;15.07;72.56;97037.12;1740359;81;26853;-71
2022/06/07 04:34:22;;;;;;;17.75;15.05;;;;;;;15.14;72.53;97035.03;1728531;81;27436;-74
2022/06/07 04:36:49;;;;;;;19.65;13.65;;;;;;;15.22;72.55;97030.23;1771922;79;25812;-75
2022/06/07 04:39:15;;;;;;;18.20;13.50;;;;;;;15.31;72.82;97028.22;1784507;79;25821;-73
2022/06/07 04:41:42;;;;;;;15.90;13.75;;;;;;;15.38;72.82;97030.22;1799299;79;25788;-72
2022/06/07 04:44:09;;;;;;;17.65;13.65;;;;;;;15.44;72.81;97029.23;1771988;78;25858;-72
2022/06/07 04:46:36;;;;;;;16.45;13.38;;;;;;;15.52;72.96;97027.95;1779920;79;27389;-73
2022/06/07 04:49:02;;;;;;;17.10;12.93;;;;;;;15.60;72.93;97030.80;1778776;79;25649;-73
2022/06/07 04:51:34;;;;;;;15.70;13.18;;;;;;;15.69;72.94;97023.86;1799226;79;25807;-72
2022/06/07 04:54:02;;;;;;;13.53;12.15;;;;;;;15.78;73.02;97019.62;1702730;83;25833;-76
2022/06/07 04:56:33;;;;;;;16.60;13.08;;;;;;;15.88;73.12;97021.63;1676715;85;25802;-72
2022/06/07 04:59:02;;;;;;;16.48;13.08;;;;;;;15.97;73.08;97029.09;1694162;83;27467;-72
2022/06/07 05:01:36;;;;;;;16.97;12.88;;;;;;;16.04;73.02;97031.09;1699932;84;25898;-75
2022/06/07 05:04:05;;;;;;;16.55;11.95;;;;;;;16.07;72.91;97033.28;1693859;83;25742;-72
2022/06/07 05:06:36;;;;;;;18.95;12.40;;;;;;;16.14;72.88;97029.02;1688388;83;26409;-72
2022/06/07 05:09:08;;;;;;;14.50;12.68;;;;;;;16.18;72.94;97025.51;1618337;87;25792;-73
2022/06/07 05:11:35;;;;;;;16.27;12.25;;;;;;;16.26;73.02;97024.78;1574652;88;29222;-73
2022/06/07 05:14:03;;;;;;;13.45;11.60;;;;;;;16.32;72.98;97026.47;1550238;92;25880;-76
2022/06/07 05:16:31;;;;;;;16.35;12.65;;;;;;;16.39;73.00;97027.10;1601742;88;25389;-73
2022/06/07 05:18:58;;;;;;;15.45;12.15;;;;;;;16.45;73.11;97026.05;1605746;88;25795;-71
2022/06/07 05:21:26;;;;;;;14.80;12.30;;;;;;;16.52;72.93;97032.14;1585889;88;25854;-77
2022/06/07 05:23:53;;;;;;;13.85;12.10;;;;;;;16.60;72.86;97026.75;1586277;88;27511;-74
2022/06/07 05:26:49;;;;;;;19.35;13.22;;;;;;;16.68;72.83;97029.84;1584963;87;25829;-72
2022/06/07 05:29:27;;;;;;;16.67;13.83;;;;;;;16.77;72.66;97037.84;1532074;92;25852;-73
2022/06/07 05:31:54;;;;;;;15.40;13.03;;;;;;;16.87;72.48;97035.20;1408772;100;25984;-76
2022/06/07 05:34:21;;;;;;;14.95;13.38;;;;;;;16.99;72.44;97035.56;1407021;101;25680;-72
2022/06/07 05:36:48;;;;;;;16.00;13.40;;;;;;;17.10;72.32;97042.73;1406434;101;28414;-73
2022/06/07 05:39:20;;;;;;;16.85;13.53;;;;;;;17.21;72.19;97043.09;1406907;100;25577;-74
2022/06/07 05:41:47;;;;;;;16.67;13.58;;;;;;;17.31;72.03;97045.88;1353442;105;25949;-75
2022/06/07 05:44:14;;;;;;;17.07;15.28;;;;;;;17.42;72.39;97047.58;1353338;104;26642;-72
2022/06/07 05:46:42;;;;;;;20.72;15.23;;;;;;;17.52;72.26;97049.00;1353783;105;25864;-76
2022/06/07 05:49:11;;;;;;;16.57;14.65;;;;;;;17.62;71.95;97046.36;1347075;105;27537;-73
2022/06/07 05:51:39;;;;;;;17.67;14.28;;;;;;;17.75;71.80;97049.16;1298907;108;25992;-73
2022/06/07 05:54:07;;;;;;;17.40;13.88;;;;;;;17.86;71.55;97054.14;1305369;107;26142;-74
2022/06/07 05:56:34;;;;;;;15.35;13.75;;;;;;;17.96;71.39;97055.01;1312422;108;26639;-72
2022/06/07 05:59:01;;;;;;;16.62;13.18;;;;;;;18.06;71.19;97052.86;1314630;108;25430;-72
2022/06/07 06:01:28;;;;;;;14.75;13.22;;;;;;;18.14;71.08;97055.06;1304451;108;27681;-74
2022/06/07 06:03:56;;;;;;;14.18;12.45;;;;;;;18.21;70.82;97052.91;1319084;108;26070;-73
2022/06/07 06:06:23;;;;;;;14.98;12.15;;;;;;;18.28;70.65;97057.57;1345545;103;25973;-73
2022/06/07 06:11:35;;;;;;;13.85;11.35;;;;;;;18.42;70.44;97057.06;1401177;100;25559;-75
2022/06/07 06:14:01;;;;;;;14.28;11.10;;;;;;;18.47;70.60;97046.16;1411433;100;27709;-77
2022/06/07 06:16:28;;;;;;;12.68;11.28;;;;;;;18.53;70.59;97051.89;1410610;101;25942;-74
2022/06/07 06:18:58;;;;;;;12.43;11.15;;;;;;;18.59;70.47;97051.68;1414842;98;25896;-75
2022/06/07 06:21:29;;;;;;;13.13;11.65;;;;;;;18.63;70.10;97041.83;1438602;97;25907;-77
2022/06/07 06:24:00;;;;;;;15.43;11.33;;;;;;;18.62;70.03;97043.45;1357401;103;25930;-74
2022/06/07 06:26:27;;;;;;;13.03;11.20;;;;;;;18.66;70.09;97037.73;1427563;97;28542;-77
2022/06/07 06:28:54;;;;;;;12.23;11.03;;;;;;;18.75;70.11;97041.56;1490743;94;26088;-76
2022/06/07 06:31:22;;;;;;;14.63;11.65;;;;;;;18.84;69.96;97039.92;1520474;94;25771;-75
2022/06/07 06:33:51;;;;;;;10.90;9.80;;;;;;;18.90;69.90;97038.84;1520378;94;25878;-73
2022/06/07 06:36:22;;;;;;;13.72;10.88;;;;;;;18.98;69.67;97037.47;1520084;94;26485;-78
2022/06/07 06:38:48;;;;;;;12.75;11.12;;;;;;;19.07;69.44;97034.48;1556363;90;27439;-74
2022/06/07 06:41:20;;;;;;;13.78;11.68;;;;;;;19.15;69.30;97035.83;1588983;90;26029;-75
2022/06/07 06:43:47;;;;;;;15.48;11.08;;;;;;;19.22;69.17;97026.78;1589654;89;25393;-74
2022/06/07 06:46:28;;;;;;;12.78;11.20;;;;;;;19.30;69.26;97030.34;1589721;90;26519;-74
2022/06/07 06:48:55;;;;;;;11.30;10.20;;;;;;;19.40;69.13;97024.85;1581067;89;25728;-74
2022/06/07 06:51:26;;;;;;;12.28;10.72;;;;;;;19.50;68.88;97028.96;1583545;89;27443;-74
2022/06/07 06:53:58;;;;;;;12.78;10.30;;;;;;;19.60;68.81;97024.00;1579235;84;26109;-79
2022/06/07 06:56:25;;;;;;;11.48;10.18;;;;;;;19.71;68.84;97023.70;1691479;84;25895;-74
2022/06/07 06:58:53;;;;;;;12.00;10.80;;;;;;;19.85;68.78;97019.81;1690978;84;25936;-74
2022/06/07 07:01:23;;;;;;;12.95;10.20;;;;;;;19.94;68.69;97017.31;1698713;84;25972;-75
2022/06/07 07:03:51;;;;;;;12.37;9.75;;;;;;;20.01;68.53;97015.10;1697772;84;26946;-75
2022/06/07 07:06:18;;;;;;;13.13;10.58;;;;;;;20.07;68.57;97011.22;1679288;84;25905;-74
2022/06/07 07:08:47;;;;;;;11.43;10.32;;;;;;;20.13;68.40;97012.85;1681412;83;25825;-78
2022/06/07 07:11:22;;;;;;;10.35;9.33;;;;;;;20.19;68.45;97011.70;1681136;84;26473;-73
2022/06/07 07:13:51;;;;;;;10.93;9.75;;;;;;;20.28;68.12;97005.92;1689094;84;25818;-74
2022/06/07 07:16:22;;;;;;;11.50;9.40;;;;;;;20.37;67.73;97003.43;1696201;84;28076;-75
2022/06/07 07:18:50;;;;;;;14.05;9.30;;;;;;;20.46;67.65;97002.54;1678116;84;25920;-74
2022/06/07 07:21:23;;;;;;;7.45;6.80;;;;;;;20.58;67.21;97000.00;1687359;84;25397;-77
2022/06/07 07:23:50;;;;;;;7.95;6.83;;;;;;;20.70;66.75;97004.57;1674422;84;25850;-75
2022/06/07 07:26:21;;;;;;;7.45;6.10;;;;;;;20.83;66.24;97005.30;1675532;80;25904;-74
2022/06/07 07:28:49;;;;;;;7.87;5.92;;;;;;;20.90;65.81;96992.05;1769813;80;28082;-76
2022/06/07 07:31:21;;;;;;;6.53;5.55;;;;;;;20.99;65.82;96995.84;1753383;80;26024;-75
2022/06/07 07:33:48;;;;;;;4.80;4.40;;;;;;;21.10;65.54;96984.22;1769592;80;25716;-75
2022/06/07 07:36:15;;;;;;;4.67;4.28;;;;;;;21.23;65.07;96989.62;1755378;80;25822;-75
2022/06/07 07:38:41;;;;;;;5.70;4.33;;;;;;;21.33;64.64;96984.02;1768382;80;25901;-78
2022/06/07 07:41:19;;;;;;;6.30;4.60;;;;;;;21.51;63.79;96983.27;1761130;80;28435;-76
2022/06/07 07:43:48;;;;;;;4.65;4.08;;;;;;;21.51;63.79;96983.27;1673071;84;25900;-78
2022/06/07 07:46:16;;;;;;;4.37;3.67;;;;;;;21.65;63.63;96978.72;1684584;84;25853;-78
2022/06/07 07:48:43;;;;;;;4.10;3.67;;;;;;;21.82;63.44;96981.00;1676001;84;25795;-75
2022/06/07 07:51:21;;;;;;;4.30;3.98;;;;;;;22.21;62.85;96979.42;1674115;84;26012;-76
2022/06/07 07:53:48;;;;;;;6.12;4.75;;;;;;;22.21;62.85;96979.42;1683735;85;27291;-77
2022/06/07 07:56:15;;;;;;;5.50;4.45;;;;;;;22.48;62.10;96971.31;1680443;84;25957;-75
2022/06/07 07:58:42;;;;;;;5.28;4.53;;;;;;;22.83;61.59;96974.64;1673571;83;26832;-77
2022/06/07 08:01:12;;;;;;;5.28;4.45;;;;;;;23.17;60.78;96955.91;1673139;84;27092;-75
2022/06/07 08:03:39;;;;;;;5.30;4.42;;;;;;;23.69;60.43;96970.36;1679481;85;25916;-76
2022/06/07 08:06:09;;;;;;;5.62;5.10;;;;;;;24.14;59.56;96955.38;1683259;85;27613;-75
2022/06/07 08:08:36;;;;;;;5.55;5.12;;;;;;;24.53;58.71;96961.11;1683004;85;25845;-76
2022/06/07 08:11:04;;;;;;;4.50;4.10;;;;;;;24.94;57.74;96953.27;1681166;84;25944;-79
2022/06/07 08:13:31;;;;;;;6.70;4.00;;;;;;;25.37;57.36;96957.09;1671365;83;25778;-79
2022/06/07 08:15:59;;;;;;;6.35;4.83;;;;;;;25.86;56.83;96955.20;1681079;84;25761;-76
2022/06/07 08:18:26;;;;;;;5.08;4.58;;;;;;;26.31;56.22;96953.66;1676056;84;28112;-76
2022/06/07 08:21:03;;;;;;;5.15;4.65;;;;;;;26.69;55.40;96951.86;1675974;84;26012;-77
2022/06/07 08:23:31;;;;;;;6.92;4.35;;;;;;;26.96;54.07;96947.15;1678204;84;26523;-77
2022/06/07 08:25:59;;;;;;;9.13;4.78;;;;;;;27.02;53.46;96945.85;1689436;84;25922;-80
2022/06/07 08:28:26;;;;;;;5.00;4.05;;;;;;;27.33;53.33;96938.11;1681924;84;25806;-76
2022/06/07 08:30:53;;;;;;;5.30;4.80;;;;;;;27.68;52.27;96943.55;1683042;84;27579;-74
2022/06/07 08:38:57;;;;;;;4.90;4.40;;;;;;;28.64;49.83;96933.74;1683186;80;25903;-74
2022/06/07 08:41:29;;;;;;;6.83;4.37;;;;;;;28.96;48.49;96930.00;1783384;79;25390;-74
2022/06/07 08:44:04;;;;;;;9.98;4.53;;;;;;;29.20;48.16;96923.70;1767783;80;27999;-74
2022/06/07 08:46:34;;;;;;;6.87;4.12;;;;;;;29.47;47.35;96921.69;1753950;80;25729;-78
2022/06/07 08:49:03;;;;;;;5.35;4.00;;;;;;;29.77;46.50;96921.50;1761978;80;25362;-75
2022/06/07 08:51:41;;;;;;;5.47;3.83;;;;;;;30.04;45.72;96913.87;1692263;83;25908;-76
2022/06/07 08:54:17;;;;;;;4.25;3.80;;;;;;;30.29;45.12;96912.69;1726514;82;25255;-75
2022/06/07 08:56:45;;;;;;;3.83;3.50;;;;;;;30.31;44.12;96907.55;1732675;82;29016;-76
2022/06/07 08:59:17;;;;;;;5.55;3.45;;;;;;;30.59;43.80;96909.61;1728734;82;43189;-75
2022/06/07 09:02:26;;;;;;;3.65;3.35;;;;;;;30.70;43.32;96900.98;1711151;83;26259;-75
2022/06/07 09:04:53;;;;;;;5.37;3.80;;;;;;;30.93;43.21;96896.47;1697996;83;26522;-75
2022/06/07 09:07:20;;;;;;;28.52;7.33;;;;;;;31.31;42.84;96888.16;1692878;83;25803;-75
2022/06/07 09:12:39;;;;;;;11.53;4.15;;;;;;;31.96;41.53;96884.45;1627232;86;25515;-78
2022/06/07 09:15:16;;;;;;;4.33;3.90;;;;;;;32.26;41.02;96884.75;1651271;86;25860;-77
2022/06/07 09:17:47;;;;;;;5.35;4.12;;;;;;;32.56;40.37;96885.84;1656553;86;25700;-74
2022/06/07 09:20:24;;;;;;;6.35;3.80;;;;;;;32.80;39.68;96884.77;1633244;86;25930;-75
2022/06/07 09:23:17;;;;;;;5.25;3.62;;;;;;;32.92;38.75;96884.61;1653527;86;27495;-80
2022/06/07 09:25:53;;;;;;;3.92;3.60;;;;;;;33.02;38.49;96885.41;1597555;89;25572;-77
2022/06/07 09:28:27;;;;;;;3.75;3.30;;;;;;;33.05;37.84;96876.28;1612946;86;25902;-77
2022/06/07 09:31:14;;;;;;;3.58;3.27;;;;;;;33.16;37.42;96878.69;1616389;87;25899;-76
2022/06/07 09:34:05;;;;;;;3.90;3.58;;;;;;;33.29;37.03;96879.36;1622527;86;25587;-79
2022/06/07 09:36:35;;;;;;;;;;;;;;;33.33;36.53;96879.44;1565413;90;28109;-76
2022/06/07 09:39:18;;;;;;;3.50;3.15;;;;;;;33.48;35.52;96874.28;1554969;90;25435;-74
2022/06/07 09:41:57;;;;;;;5.10;3.12;;;;;;;33.34;36.28;96862.84;1572972;89;25788;-73
2022/06/07 09:44:38;;;;;;;3.77;3.10;;;;;;;33.46;35.88;96858.45;1589126;89;25830;-74
2022/06/07 09:47:16;;;;;;;3.70;3.40;;;;;;;33.40;35.34;96859.97;1570281;91;27025;-77
2022/06/07 09:50:02;;;;;;;3.30;3.10;;;;;;;33.26;35.09;96847.34;1571808;89;26879;-77
2022/06/07 09:52:52;;;;;;;4.33;3.33;;;;;;;33.15;35.03;96850.51;1608390;88;25899;-74
2022/06/07 09:55:24;;;;;;;6.05;3.17;;;;;;;32.86;35.14;96844.14;1582933;89;25927;-79
2022/06/07 09:58:34;;;;;;;3.67;3.37;;;;;;;32.63;35.54;96837.66;1581450;87;26583;-76
2022/06/07 10:01:05;;;;;;;3.90;3.60;;;;;;;32.40;35.63;96839.80;1613303;87;25753;-76
2022/06/07 10:03:43;;;;;;;3.87;3.42;;;;;;;32.05;35.24;96838.99;1603764;87;28131;-75
2022/06/07 10:06:29;;;;;;;3.65;3.37;;;;;;;32.02;35.82;96824.36;1573151;91;25469;-79
2022/06/07 10:09:22;;;;;;;3.40;3.20;;;;;;;31.98;36.20;96830.47;1570791;90;26421;-75
2022/06/07 10:11:56;;;;;;;4.70;3.45;;;;;;;32.06;36.39;96826.66;1551263;90;25791;-75
2022/06/07 10:14:48;;;;;;;3.87;3.52;;;;;;;32.24;35.95;96829.30;1532786;91;25811;-75
2022/06/07 10:18:01;;;;;;;3.80;3.50;;;;;;;32.42;35.74;96819.30;1495863;94;27637;-76
2022/06/07 10:20:50;;;;;;;3.85;3.50;;;;;;;32.70;35.62;96818.27;1504889;94;25916;-79
2022/06/07 10:23:59;;;;;;;4.00;3.70;;;;;;;33.01;34.65;96813.09;1532993;89;25992;-73
2022/06/07 10:26:46;;;;;;;5.40;3.58;;;;;;;32.68;34.64;96816.42;1582904;88;25870;-75
2022/06/07 10:29:31;;;;;;;3.80;3.50;;;;;;;32.53;34.81;96810.55;1579608;88;25828;-74
2022/06/07 10:32:11;;;;;;;4.33;3.67;;;;;;;32.55;34.75;96810.99;1594276;88;28333;-74
2022/06/07 10:34:52;;;;;;;4.17;3.52;;;;;;;32.71;34.92;96805.91;1591726;88;25796;-76
2022/06/07 10:37:36;;;;;;;3.70;3.40;;;;;;;32.58;34.94;96797.47;1594667;88;25777;-76
2022/06/07 10:40:23;;;;;;;4.80;3.25;;;;;;;32.70;34.27;96795.91;1587509;88;26319;-80
2022/06/07 10:42:58;;;;;;;3.30;3.00;;;;;;;32.50;34.58;96786.14;1565060;90;25870;-75
2022/06/07 10:45:37;;;;;;;3.50;3.20;;;;;;;32.67;34.73;96782.09;1616096;85;27465;-76
2022/06/07 10:48:17;;;;;;;4.05;3.75;;;;;;;32.40;34.31;96788.72;1565359;88;25815;-79
2022/06/07 10:50:52;;;;;;;4.17;3.77;;;;;;;32.38;34.50;96785.48;1570344;89;26478;-74
2022/06/07 10:53:28;;;;;;;5.25;3.70;;;;;;;32.59;34.52;96785.13;1561952;89;26584;-75
2022/06/07 10:56:03;;;;;;;4.25;3.77;;;;;;;32.45;34.51;96778.07;1582610;89;25985;-75
2022/06/07 10:58:42;;;;;;;6.97;3.50;;;;;;;32.17;34.80;96771.86;1542728;92;27543;-75
2022/06/07 11:01:37;;;;;;;4.42;4.03;;;;;;;32.11;35.42;96768.56;1516790;93;25876;-75
2022/06/07 11:10:24;;;;;;;4.25;3.90;;;;;;;31.84;35.41;96768.16;1500150;92;25895;-75
2022/06/07 11:13:16;;;;;;;7.55;4.17;;;;;;;31.63;35.54;96764.28;1489317;95;28327;-77
2022/06/07 11:16:16;;;;;;;9.18;4.60;;;;;;;31.42;35.76;96765.95;1507544;93;25844;-75
2022/06/07 11:18:43;;;;;;;4.83;4.42;;;;;;;31.12;36.01;96761.45;1473944;96;25520;-74
2022/06/07 11:21:15;;;;;;;5.87;5.12;;;;;;;30.94;36.35;96764.33;1474951;96;25920;-79
2022/06/07 11:23:59;;;;;;;5.05;4.55;;;;;;;30.81;36.38;96761.39;1511568;93;26849;-75
2022/06/07 11:26:25;;;;;;;6.80;4.40;;;;;;;30.65;36.61;96760.00;1518296;93;27452;-75
2022/06/07 11:28:55;;;;;;;4.97;4.58;;;;;;;30.43;36.60;96755.77;1544228;92;25778;-76
2022/06/07 11:31:29;;;;;;;5.40;4.90;;;;;;;30.30;36.82;96748.67;1544221;92;25828;-76
2022/06/07 11:34:24;;;;;;;8.83;5.35;;;;;;;29.98;36.64;96753.87;1573255;90;26545;-76
2022/06/07 11:36:58;;;;;;;6.10;5.30;;;;;;;29.55;37.36;96749.78;1573091;90;25821;-77
2022/06/07 11:39:32;;;;;;;5.87;5.40;;;;;;;29.08;37.70;96744.45;1573324;90;27443;-80
2022/06/07 11:42:22;;;;;;;5.67;4.83;;;;;;;28.66;38.29;96754.30;1583572;89;25792;-78
2022/06/07 11:45:23;;;;;;;5.95;5.45;;;;;;;28.48;39.00;96754.27;1551880;91;26294;-76
2022/06/07 11:48:13;;;;;;;5.33;4.92;;;;;;;28.37;39.00;96746.95;1591798;89;35352;-74
2022/06/07 11:51:13;;;;;;;5.70;4.95;;;;;;;28.27;39.19;96745.97;1554807;91;25532;-75
2022/06/07 11:53:48;;;;;;;5.22;4.83;;;;;;;28.15;39.36;96745.31;1579047;89;27602;-74
2022/06/07 11:56:46;;;;;;;4.97;4.55;;;;;;;28.08;39.94;96743.69;1621198;87;25912;-74
2022/06/07 11:59:24;;;;;;;5.80;4.45;;;;;;;27.97;40.01;96746.64;1624411;87;25913;-76
2022/06/07 12:02:02;;;;;;;4.55;4.15;;;;;;;27.70;40.18;96744.41;1596373;87;26469;-75
2022/06/07 12:04:49;;;;;;;5.10;4.70;;;;;;;27.21;40.77;96749.58;1601562;86;25848;-76
2022/06/07 12:07:52;;;;;;;11.30;5.10;;;;;;;26.94;41.52;96749.46;1603287;87;28203;-75
2022/06/07 12:10:27;;;;;;;5.03;4.53;;;;;;;26.72;41.89;96739.42;1583874;89;26036;-78
2022/06/07 12:13:01;;;;;;;6.87;4.30;;;;;;;26.26;42.15;96739.37;1520951;92;25851;-74